sensor_id;sensor_type;location;lat;lon;timestamp;P1;durP1;ratioP1;P2;durP2;ratioP2
2201;SDS011;1107;48.654;9.250;2022-07-23T00:00:13;9.03;;;8.63;;
2201;SDS011;1107;48.654;9.250;2022-07-23T00:02:41;8.30;;;7.90;;
2201;SDS011;1107;48.654;9.250;2022-07-23T00:05:10;8.30;;;7.70;;
2201;SDS011;1107;48.654;9.250;2022-07-23T00:07:37;8.47;;;7.97;;
2201;SDS011;1107;48.654;9.250;2022-07-23T00:10:05;7.50;;;7.20;;
2201;SDS011;1107;48.654;9.250;2022-07-23T00:12:33;8.70;;;8.13;;
2201;SDS011;1107;48.654;9.250;2022-07-23T00:15:02;8.00;;;7.60;;
2201;SDS011;1107;48.654;9.250;2022-07-23T00:17:29;8.67;;;8.20;;
2201;SDS011;1107;48.654;9.250;2022-07-23T00:19:56;8.20;;;7.60;;
2201;SDS011;1107;48.654;9.250;2022-07-23T00:22:24;7.73;;;7.33;;
2201;SDS011;1107;48.654;9.250;2022-07-23T00:24:51;8.13;;;7.73;;
2201;SDS011;1107;48.654;9.250;2022-07-23T00:27:18;8.53;;;7.83;;
2201;SDS011;1107;48.654;9.250;2022-07-23T00:29:45;9.67;;;9.03;;
2201;SDS011;1107;48.654;9.250;2022-07-23T00:32:13;8.17;;;7.63;;
2201;SDS011;1107;48.654;9.250;2022-07-23T00:34:40;8.43;;;8.03;;
2201;SDS011;1107;48.654;9.250;2022-07-23T00:37:07;8.40;;;8.10;;
2201;SDS011;1107;48.654;9.250;2022-07-23T00:39:34;8.50;;;8.10;;
2201;SDS011;1107;48.654;9.250;2022-07-23T00:42:03;9.17;;;8.77;;
2201;SDS011;1107;48.654;9.250;2022-07-23T00:44:30;8.30;;;7.90;;
2201;SDS011;1107;48.654;9.250;2022-07-23T00:46:57;6.60;;;6.10;;
2201;SDS011;1107;48.654;9.250;2022-07-23T00:49:27;6.47;;;6.07;;
2201;SDS011;1107;48.654;9.250;2022-07-23T00:51:55;6.13;;;5.83;;
2201;SDS011;1107;48.654;9.250;2022-07-23T00:54:23;5.97;;;5.67;;
2201;SDS011;1107;48.654;9.250;2022-07-23T00:56:52;5.90;;;5.60;;
2201;SDS011;1107;48.654;9.250;2022-07-23T00:59:19;6.50;;;6.20;;
2201;SDS011;1107;48.654;9.250;2022-07-23T01:01:46;5.57;;;5.37;;
2201;SDS011;1107;48.654;9.250;2022-07-23T01:04:14;6.23;;;5.93;;
2201;SDS011;1107;48.654;9.250;2022-07-23T01:06:43;6.63;;;6.23;;
2201;SDS011;1107;48.654;9.250;2022-07-23T01:09:11;5.87;;;5.67;;
2201;SDS011;1107;48.654;9.250;2022-07-23T01:11:38;6.30;;;5.80;;
2201;SDS011;1107;48.654;9.250;2022-07-23T01:14:09;6.27;;;5.97;;
2201;SDS011;1107;48.654;9.250;2022-07-23T01:16:40;6.70;;;6.40;;
2201;SDS011;1107;48.654;9.250;2022-07-23T01:19:08;7.47;;;6.73;;
2201;SDS011;1107;48.654;9.250;2022-07-23T01:21:36;6.30;;;6.00;;
2201;SDS011;1107;48.654;9.250;2022-07-23T01:24:05;6.00;;;5.80;;
2201;SDS011;1107;48.654;9.250;2022-07-23T01:26:33;6.57;;;6.17;;
2201;SDS011;1107;48.654;9.250;2022-07-23T01:29:01;6.37;;;6.10;;
2201;SDS011;1107;48.654;9.250;2022-07-23T01:31:28;6.07;;;5.77;;
2201;SDS011;1107;48.654;9.250;2022-07-23T01:33:56;6.17;;;5.87;;
2201;SDS011;1107;48.654;9.250;2022-07-23T01:36:23;6.90;;;6.40;;
2201;SDS011;1107;48.654;9.250;2022-07-23T01:38:50;5.60;;;5.40;;
2201;SDS011;1107;48.654;9.250;2022-07-23T01:41:19;7.33;;;6.60;;
2201;SDS011;1107;48.654;9.250;2022-07-23T01:43:46;6.90;;;6.30;;
2201;SDS011;1107;48.654;9.250;2022-07-23T01:46:13;6.27;;;5.97;;
2201;SDS011;1107;48.654;9.250;2022-07-23T01:48:40;5.90;;;5.60;;
2201;SDS011;1107;48.654;9.250;2022-07-23T01:51:07;6.70;;;6.40;;
2201;SDS011;1107;48.654;9.250;2022-07-23T01:53:34;6.00;;;5.60;;
2201;SDS011;1107;48.654;9.250;2022-07-23T01:56:01;6.83;;;6.23;;
2201;SDS011;1107;48.654;9.250;2022-07-23T01:58:30;6.27;;;5.97;;
2201;SDS011;1107;48.654;9.250;2022-07-23T02:00:57;6.03;;;5.80;;
2201;SDS011;1107;48.654;9.250;2022-07-23T02:03:25;5.83;;;5.53;;
2201;SDS011;1107;48.654;9.250;2022-07-23T02:05:52;5.93;;;5.73;;
2201;SDS011;1107;48.654;9.250;2022-07-23T02:08:19;6.10;;;5.70;;
2201;SDS011;1107;48.654;9.250;2022-07-23T02:10:46;6.40;;;6.10;;
2201;SDS011;1107;48.654;9.250;2022-07-23T02:13:16;6.20;;;5.80;;
2201;SDS011;1107;48.654;9.250;2022-07-23T02:15:44;6.43;;;6.13;;
2201;SDS011;1107;48.654;9.250;2022-07-23T02:18:12;6.50;;;6.20;;
2201;SDS011;1107;48.654;9.250;2022-07-23T02:20:39;5.77;;;5.50;;
2201;SDS011;1107;48.654;9.250;2022-07-23T02:23:06;6.13;;;5.83;;
2201;SDS011;1107;48.654;9.250;2022-07-23T02:25:33;6.00;;;5.70;;
2201;SDS011;1107;48.654;9.250;2022-07-23T02:28:00;6.37;;;6.07;;
2201;SDS011;1107;48.654;9.250;2022-07-23T02:30:28;6.00;;;5.70;;
2201;SDS011;1107;48.654;9.250;2022-07-23T02:32:56;7.10;;;6.70;;
2201;SDS011;1107;48.654;9.250;2022-07-23T02:35:23;6.77;;;6.27;;
2201;SDS011;1107;48.654;9.250;2022-07-23T02:37:51;6.90;;;6.37;;
2201;SDS011;1107;48.654;9.250;2022-07-23T02:40:18;6.43;;;6.13;;
2201;SDS011;1107;48.654;9.250;2022-07-23T02:42:45;6.30;;;6.00;;
2201;SDS011;1107;48.654;9.250;2022-07-23T02:45:12;6.33;;;6.13;;
2201;SDS011;1107;48.654;9.250;2022-07-23T02:47:39;6.23;;;6.03;;
2201;SDS011;1107;48.654;9.250;2022-07-23T02:50:08;6.80;;;6.33;;
2201;SDS011;1107;48.654;9.250;2022-07-23T02:52:35;6.60;;;6.30;;
2201;SDS011;1107;48.654;9.250;2022-07-23T02:55:03;6.40;;;6.10;;
2201;SDS011;1107;48.654;9.250;2022-07-23T02:57:30;6.47;;;6.17;;
2201;SDS011;1107;48.654;9.250;2022-07-23T02:59:57;7.00;;;6.60;;
2201;SDS011;1107;48.654;9.250;2022-07-23T03:02:24;6.70;;;6.40;;
2201;SDS011;1107;48.654;9.250;2022-07-23T03:04:51;7.00;;;6.50;;
2201;SDS011;1107;48.654;9.250;2022-07-23T03:07:20;7.00;;;6.70;;
2201;SDS011;1107;48.654;9.250;2022-07-23T03:09:47;6.77;;;6.37;;
2201;SDS011;1107;48.654;9.250;2022-07-23T03:12:14;6.80;;;6.50;;
2201;SDS011;1107;48.654;9.250;2022-07-23T03:14:41;7.10;;;6.80;;
2201;SDS011;1107;48.654;9.250;2022-07-23T03:17:08;6.67;;;6.17;;
2201;SDS011;1107;48.654;9.250;2022-07-23T03:19:36;6.70;;;6.10;;
2201;SDS011;1107;48.654;9.250;2022-07-23T03:22:03;7.00;;;6.70;;
2201;SDS011;1107;48.654;9.250;2022-07-23T03:24:32;6.67;;;6.27;;
2201;SDS011;1107;48.654;9.250;2022-07-23T03:27:16;6.67;;;6.30;;
2201;SDS011;1107;48.654;9.250;2022-07-23T03:29:43;7.20;;;6.80;;
2201;SDS011;1107;48.654;9.250;2022-07-23T03:32:10;7.10;;;6.80;;
2201;SDS011;1107;48.654;9.250;2022-07-23T03:34:37;6.90;;;6.50;;
2201;SDS011;1107;48.654;9.250;2022-07-23T03:37:04;6.60;;;6.30;;
2201;SDS011;1107;48.654;9.250;2022-07-23T03:39:33;6.93;;;6.63;;
2201;SDS011;1107;48.654;9.250;2022-07-23T03:42:00;7.23;;;6.83;;
2201;SDS011;1107;48.654;9.250;2022-07-23T03:44:27;8.37;;;7.67;;
2201;SDS011;1107;48.654;9.250;2022-07-23T03:46:54;7.10;;;6.80;;
2201;SDS011;1107;48.654;9.250;2022-07-23T03:49:21;7.20;;;6.90;;
2201;SDS011;1107;48.654;9.250;2022-07-23T03:51:48;7.67;;;7.03;;
2201;SDS011;1107;48.654;9.250;2022-07-23T03:54:15;9.80;;;7.33;;
2201;SDS011;1107;48.654;9.250;2022-07-23T03:56:44;7.00;;;6.60;;
2201;SDS011;1107;48.654;9.250;2022-07-23T03:59:11;7.83;;;7.53;;
2201;SDS011;1107;48.654;9.250;2022-07-23T04:01:38;8.00;;;7.50;;
2201;SDS011;1107;48.654;9.250;2022-07-23T04:04:05;8.07;;;7.77;;
2201;SDS011;1107;48.654;9.250;2022-07-23T04:06:33;8.50;;;8.00;;
2201;SDS011;1107;48.654;9.250;2022-07-23T04:09:00;8.43;;;7.80;;
2201;SDS011;1107;48.654;9.250;2022-07-23T04:11:27;8.23;;;7.80;;
2201;SDS011;1107;48.654;9.250;2022-07-23T04:13:56;7.60;;;7.20;;
2201;SDS011;1107;48.654;9.250;2022-07-23T04:16:23;7.73;;;7.30;;
2201;SDS011;1107;48.654;9.250;2022-07-23T04:18:50;8.43;;;7.77;;
2201;SDS011;1107;48.654;9.250;2022-07-23T04:21:17;7.80;;;7.40;;
2201;SDS011;1107;48.654;9.250;2022-07-23T04:23:44;8.40;;;8.00;;
2201;SDS011;1107;48.654;9.250;2022-07-23T04:26:11;8.90;;;8.50;;
2201;SDS011;1107;48.654;9.250;2022-07-23T04:28:38;8.23;;;7.93;;
2201;SDS011;1107;48.654;9.250;2022-07-23T04:31:06;8.77;;;7.80;;
2201;SDS011;1107;48.654;9.250;2022-07-23T04:33:33;9.30;;;8.40;;
2201;SDS011;1107;48.654;9.250;2022-07-23T04:36:00;8.33;;;7.77;;
2201;SDS011;1107;48.654;9.250;2022-07-23T04:38:27;8.10;;;7.70;;
2201;SDS011;1107;48.654;9.250;2022-07-23T04:40:55;9.00;;;8.50;;
2201;SDS011;1107;48.654;9.250;2022-07-23T04:43:22;8.57;;;7.73;;
2201;SDS011;1107;48.654;9.250;2022-07-23T04:45:49;8.40;;;7.97;;
2201;SDS011;1107;48.654;9.250;2022-07-23T04:48:18;8.40;;;8.03;;
2201;SDS011;1107;48.654;9.250;2022-07-23T04:50:45;8.60;;;8.30;;
2201;SDS011;1107;48.654;9.250;2022-07-23T04:53:12;8.57;;;8.07;;
2201;SDS011;1107;48.654;9.250;2022-07-23T04:55:39;8.07;;;7.67;;
2201;SDS011;1107;48.654;9.250;2022-07-23T04:58:06;8.37;;;7.97;;
2201;SDS011;1107;48.654;9.250;2022-07-23T05:00:33;9.03;;;8.50;;
2201;SDS011;1107;48.654;9.250;2022-07-23T05:03:00;10.30;;;7.80;;
2201;SDS011;1107;48.654;9.250;2022-07-23T05:05:28;8.50;;;8.20;;
2201;SDS011;1107;48.654;9.250;2022-07-23T05:07:55;8.47;;;8.10;;
2201;SDS011;1107;48.654;9.250;2022-07-23T05:10:22;8.90;;;8.30;;
2201;SDS011;1107;48.654;9.250;2022-07-23T05:12:49;8.80;;;8.50;;
2201;SDS011;1107;48.654;9.250;2022-07-23T05:15:16;8.70;;;8.30;;
2201;SDS011;1107;48.654;9.250;2022-07-23T05:17:43;8.00;;;7.67;;
2201;SDS011;1107;48.654;9.250;2022-07-23T05:20:10;9.00;;;8.60;;
2201;SDS011;1107;48.654;9.250;2022-07-23T05:22:39;9.03;;;8.53;;
2201;SDS011;1107;48.654;9.250;2022-07-23T05:25:07;9.33;;;8.70;;
2201;SDS011;1107;48.654;9.250;2022-07-23T05:27:34;9.70;;;9.20;;
2201;SDS011;1107;48.654;9.250;2022-07-23T05:30:01;9.60;;;8.90;;
2201;SDS011;1107;48.654;9.250;2022-07-23T05:32:30;9.10;;;8.60;;
2201;SDS011;1107;48.654;9.250;2022-07-23T05:34:58;9.20;;;8.80;;
2201;SDS011;1107;48.654;9.250;2022-07-23T05:37:25;8.87;;;8.20;;
2201;SDS011;1107;48.654;9.250;2022-07-23T05:39:53;8.77;;;8.27;;
2201;SDS011;1107;48.654;9.250;2022-07-23T05:42:20;9.13;;;8.60;;
2201;SDS011;1107;48.654;9.250;2022-07-23T05:44:47;9.77;;;9.17;;
2201;SDS011;1107;48.654;9.250;2022-07-23T05:47:14;9.40;;;8.90;;
2201;SDS011;1107;48.654;9.250;2022-07-23T05:49:41;9.70;;;9.00;;
2201;SDS011;1107;48.654;9.250;2022-07-23T05:52:08;10.67;;;9.77;;
2201;SDS011;1107;48.654;9.250;2022-07-23T05:54:35;9.67;;;9.17;;
2201;SDS011;1107;48.654;9.250;2022-07-23T05:57:03;10.47;;;9.47;;
2201;SDS011;1107;48.654;9.250;2022-07-23T05:59:31;9.40;;;8.80;;
2201;SDS011;1107;48.654;9.250;2022-07-23T06:01:58;9.00;;;8.60;;
2201;SDS011;1107;48.654;9.250;2022-07-23T06:04:25;9.77;;;9.27;;
2201;SDS011;1107;48.654;9.250;2022-07-23T06:06:52;9.63;;;8.93;;
2201;SDS011;1107;48.654;9.250;2022-07-23T06:09:19;9.00;;;8.70;;
2201;SDS011;1107;48.654;9.250;2022-07-23T06:11:46;10.30;;;9.33;;
2201;SDS011;1107;48.654;9.250;2022-07-23T06:14:14;9.80;;;9.40;;
2201;SDS011;1107;48.654;9.250;2022-07-23T06:16:41;9.60;;;9.17;;
2201;SDS011;1107;48.654;9.250;2022-07-23T06:19:08;9.07;;;8.57;;
2201;SDS011;1107;48.654;9.250;2022-07-23T06:21:35;9.73;;;9.03;;
2201;SDS011;1107;48.654;9.250;2022-07-23T06:24:02;9.33;;;8.83;;
2201;SDS011;1107;48.654;9.250;2022-07-23T06:26:29;9.73;;;9.13;;
2201;SDS011;1107;48.654;9.250;2022-07-23T06:28:56;10.43;;;9.77;;
2201;SDS011;1107;48.654;9.250;2022-07-23T06:31:25;9.87;;;9.17;;
2201;SDS011;1107;48.654;9.250;2022-07-23T06:33:52;9.17;;;8.60;;
2201;SDS011;1107;48.654;9.250;2022-07-23T06:36:19;9.60;;;9.10;;
2201;SDS011;1107;48.654;9.250;2022-07-23T06:38:46;10.27;;;9.57;;
2201;SDS011;1107;48.654;9.250;2022-07-23T06:41:13;9.53;;;9.03;;
2201;SDS011;1107;48.654;9.250;2022-07-23T06:43:40;9.80;;;9.30;;
2201;SDS011;1107;48.654;9.250;2022-07-23T06:46:07;8.60;;;8.30;;
2201;SDS011;1107;48.654;9.250;2022-07-23T06:48:35;9.23;;;8.93;;
2201;SDS011;1107;48.654;9.250;2022-07-23T06:51:03;9.40;;;8.80;;
2201;SDS011;1107;48.654;9.250;2022-07-23T06:53:30;9.40;;;8.87;;
2201;SDS011;1107;48.654;9.250;2022-07-23T06:55:57;11.43;;;9.77;;
2201;SDS011;1107;48.654;9.250;2022-07-23T06:58:24;8.90;;;8.60;;
2201;SDS011;1107;48.654;9.250;2022-07-23T07:00:51;9.63;;;9.13;;
2201;SDS011;1107;48.654;9.250;2022-07-23T07:03:18;8.30;;;8.00;;
2201;SDS011;1107;48.654;9.250;2022-07-23T07:05:46;9.33;;;8.53;;
2201;SDS011;1107;48.654;9.250;2022-07-23T07:08:15;8.80;;;8.20;;
2201;SDS011;1107;48.654;9.250;2022-07-23T07:10:43;8.93;;;8.37;;
2201;SDS011;1107;48.654;9.250;2022-07-23T07:13:10;8.70;;;8.30;;
2201;SDS011;1107;48.654;9.250;2022-07-23T07:15:37;9.13;;;8.30;;
2201;SDS011;1107;48.654;9.250;2022-07-23T07:18:05;12.27;;;8.13;;
2201;SDS011;1107;48.654;9.250;2022-07-23T07:20:32;8.97;;;8.57;;
2201;SDS011;1107;48.654;9.250;2022-07-23T07:23:01;8.70;;;8.20;;
2201;SDS011;1107;48.654;9.250;2022-07-23T07:25:28;9.03;;;8.63;;
2201;SDS011;1107;48.654;9.250;2022-07-23T07:27:55;8.13;;;7.73;;
2201;SDS011;1107;48.654;9.250;2022-07-23T07:30:22;8.20;;;7.80;;
2201;SDS011;1107;48.654;9.250;2022-07-23T07:32:49;8.57;;;7.83;;
2201;SDS011;1107;48.654;9.250;2022-07-23T07:35:16;8.17;;;7.67;;
2201;SDS011;1107;48.654;9.250;2022-07-23T07:37:43;8.20;;;7.80;;
2201;SDS011;1107;48.654;9.250;2022-07-23T07:40:12;7.97;;;7.43;;
2201;SDS011;1107;48.654;9.250;2022-07-23T07:42:50;7.73;;;7.43;;
2201;SDS011;1107;48.654;9.250;2022-07-23T07:45:23;9.03;;;7.83;;
2201;SDS011;1107;48.654;9.250;2022-07-23T07:47:51;8.07;;;7.67;;
2201;SDS011;1107;48.654;9.250;2022-07-23T07:50:19;7.40;;;7.10;;
2201;SDS011;1107;48.654;9.250;2022-07-23T07:52:46;8.60;;;8.00;;
2201;SDS011;1107;48.654;9.250;2022-07-23T07:55:15;7.70;;;7.40;;
2201;SDS011;1107;48.654;9.250;2022-07-23T07:57:42;8.37;;;7.80;;
2201;SDS011;1107;48.654;9.250;2022-07-23T08:00:10;8.23;;;7.43;;
2201;SDS011;1107;48.654;9.250;2022-07-23T08:02:41;7.63;;;7.33;;
2201;SDS011;1107;48.654;9.250;2022-07-23T08:05:09;8.17;;;7.50;;
2201;SDS011;1107;48.654;9.250;2022-07-23T08:07:37;8.03;;;7.73;;
2201;SDS011;1107;48.654;9.250;2022-07-23T08:10:06;8.13;;;7.83;;
2201;SDS011;1107;48.654;9.250;2022-07-23T08:12:39;8.67;;;8.27;;
2201;SDS011;1107;48.654;9.250;2022-07-23T08:15:09;7.77;;;7.47;;
2201;SDS011;1107;48.654;9.250;2022-07-23T08:17:37;7.60;;;7.30;;
2201;SDS011;1107;48.654;9.250;2022-07-23T08:20:04;8.50;;;8.00;;
2201;SDS011;1107;48.654;9.250;2022-07-23T08:22:45;8.23;;;7.80;;
2201;SDS011;1107;48.654;9.250;2022-07-23T08:25:14;8.20;;;7.80;;
2201;SDS011;1107;48.654;9.250;2022-07-23T08:27:43;8.10;;;7.80;;
2201;SDS011;1107;48.654;9.250;2022-07-23T08:30:11;10.83;;;7.90;;
2201;SDS011;1107;48.654;9.250;2022-07-23T08:32:48;9.13;;;8.53;;
2201;SDS011;1107;48.654;9.250;2022-07-23T08:35:24;8.10;;;7.80;;
2201;SDS011;1107;48.654;9.250;2022-07-23T08:37:53;7.80;;;7.40;;
2201;SDS011;1107;48.654;9.250;2022-07-23T08:40:20;7.80;;;7.47;;
2201;SDS011;1107;48.654;9.250;2022-07-23T08:42:49;9.07;;;7.93;;
2201;SDS011;1107;48.654;9.250;2022-07-23T08:45:17;7.30;;;6.90;;
2201;SDS011;1107;48.654;9.250;2022-07-23T08:47:48;7.83;;;7.43;;
2201;SDS011;1107;48.654;9.250;2022-07-23T08:50:16;10.23;;;7.47;;
2201;SDS011;1107;48.654;9.250;2022-07-23T08:52:43;7.87;;;7.47;;
2201;SDS011;1107;48.654;9.250;2022-07-23T08:55:10;8.00;;;7.50;;
2201;SDS011;1107;48.654;9.250;2022-07-23T08:57:37;7.63;;;7.10;;
2201;SDS011;1107;48.654;9.250;2022-07-23T09:00:06;11.70;;;7.70;;
2201;SDS011;1107;48.654;9.250;2022-07-23T09:02:38;8.23;;;7.93;;
2201;SDS011;1107;48.654;9.250;2022-07-23T09:05:07;8.03;;;7.63;;
2201;SDS011;1107;48.654;9.250;2022-07-23T09:07:35;8.17;;;7.67;;
2201;SDS011;1107;48.654;9.250;2022-07-23T09:10:07;8.07;;;7.47;;
2201;SDS011;1107;48.654;9.250;2022-07-23T09:12:35;7.87;;;7.47;;
2201;SDS011;1107;48.654;9.250;2022-07-23T09:15:08;8.83;;;8.53;;
2201;SDS011;1107;48.654;9.250;2022-07-23T09:17:37;8.63;;;8.17;;
2201;SDS011;1107;48.654;9.250;2022-07-23T09:20:09;9.70;;;8.97;;
2201;SDS011;1107;48.654;9.250;2022-07-23T09:22:37;9.63;;;9.23;;
2201;SDS011;1107;48.654;9.250;2022-07-23T09:25:08;8.03;;;7.70;;
2201;SDS011;1107;48.654;9.250;2022-07-23T09:27:47;8.87;;;8.13;;
2201;SDS011;1107;48.654;9.250;2022-07-23T09:30:19;9.10;;;7.37;;
2201;SDS011;1107;48.654;9.250;2022-07-23T09:33:09;9.20;;;8.47;;
2201;SDS011;1107;48.654;9.250;2022-07-23T09:35:43;9.13;;;8.73;;
2201;SDS011;1107;48.654;9.250;2022-07-23T09:38:14;8.70;;;8.40;;
2201;SDS011;1107;48.654;9.250;2022-07-23T09:40:42;9.33;;;8.90;;
2201;SDS011;1107;48.654;9.250;2022-07-23T09:43:10;8.57;;;8.27;;
2201;SDS011;1107;48.654;9.250;2022-07-23T09:45:39;8.03;;;7.63;;
2201;SDS011;1107;48.654;9.250;2022-07-23T09:48:10;8.27;;;7.97;;
2201;SDS011;1107;48.654;9.250;2022-07-23T09:50:38;9.00;;;8.50;;
2201;SDS011;1107;48.654;9.250;2022-07-23T09:53:05;9.00;;;8.40;;
2201;SDS011;1107;48.654;9.250;2022-07-23T09:55:34;13.90;;;7.50;;
2201;SDS011;1107;48.654;9.250;2022-07-23T09:58:03;8.20;;;7.90;;
2201;SDS011;1107;48.654;9.250;2022-07-23T10:00:31;9.10;;;8.80;;
2201;SDS011;1107;48.654;9.250;2022-07-23T10:03:00;9.67;;;8.83;;
2201;SDS011;1107;48.654;9.250;2022-07-23T10:05:29;9.27;;;8.87;;
2201;SDS011;1107;48.654;9.250;2022-07-23T10:07:57;9.07;;;8.77;;
2201;SDS011;1107;48.654;9.250;2022-07-23T10:10:26;8.77;;;8.37;;
2201;SDS011;1107;48.654;9.250;2022-07-23T10:12:54;9.33;;;8.70;;
2201;SDS011;1107;48.654;9.250;2022-07-23T10:15:45;9.87;;;9.03;;
2201;SDS011;1107;48.654;9.250;2022-07-23T10:18:14;8.47;;;8.13;;
2201;SDS011;1107;48.654;9.250;2022-07-23T10:20:41;8.57;;;7.97;;
2201;SDS011;1107;48.654;9.250;2022-07-23T10:23:10;14.13;;;9.47;;
2201;SDS011;1107;48.654;9.250;2022-07-23T10:25:49;9.10;;;8.70;;
2201;SDS011;1107;48.654;9.250;2022-07-23T10:31:14;8.87;;;8.47;;
2201;SDS011;1107;48.654;9.250;2022-07-23T10:33:56;9.20;;;8.77;;
2201;SDS011;1107;48.654;9.250;2022-07-23T10:36:30;8.23;;;7.83;;
2201;SDS011;1107;48.654;9.250;2022-07-23T10:39:03;8.80;;;8.50;;
2201;SDS011;1107;48.654;9.250;2022-07-23T10:41:33;9.10;;;8.70;;
2201;SDS011;1107;48.654;9.250;2022-07-23T10:44:07;9.20;;;8.80;;
2201;SDS011;1107;48.654;9.250;2022-07-23T10:46:36;12.73;;;9.00;;
2201;SDS011;1107;48.654;9.250;2022-07-23T10:49:27;8.70;;;8.40;;
2201;SDS011;1107;48.654;9.250;2022-07-23T10:54:52;8.67;;;8.20;;
2201;SDS011;1107;48.654;9.250;2022-07-23T10:57:20;9.00;;;8.50;;
2201;SDS011;1107;48.654;9.250;2022-07-23T11:02:47;8.30;;;7.90;;
2201;SDS011;1107;48.654;9.250;2022-07-23T11:05:17;8.40;;;8.10;;
2201;SDS011;1107;48.654;9.250;2022-07-23T11:10:40;9.63;;;9.00;;
2201;SDS011;1107;48.654;9.250;2022-07-23T11:13:25;9.30;;;8.70;;
2201;SDS011;1107;48.654;9.250;2022-07-23T11:16:11;9.63;;;8.93;;
2201;SDS011;1107;48.654;9.250;2022-07-23T11:18:54;8.87;;;8.30;;
2201;SDS011;1107;48.654;9.250;2022-07-23T11:21:45;8.60;;;7.90;;
2201;SDS011;1107;48.654;9.250;2022-07-23T11:24:14;8.10;;;7.80;;
2201;SDS011;1107;48.654;9.250;2022-07-23T11:26:47;8.27;;;7.70;;
2201;SDS011;1107;48.654;9.250;2022-07-23T11:32:32;8.27;;;7.93;;
2201;SDS011;1107;48.654;9.250;2022-07-23T11:35:06;11.20;;;8.10;;
2201;SDS011;1107;48.654;9.250;2022-07-23T11:37:50;8.20;;;7.80;;
2201;SDS011;1107;48.654;9.250;2022-07-23T11:40:23;8.00;;;7.70;;
2201;SDS011;1107;48.654;9.250;2022-07-23T11:42:53;8.40;;;8.10;;
2201;SDS011;1107;48.654;9.250;2022-07-23T11:45:22;8.13;;;7.73;;
2201;SDS011;1107;48.654;9.250;2022-07-23T11:47:50;8.63;;;8.33;;
2201;SDS011;1107;48.654;9.250;2022-07-23T11:50:17;8.73;;;8.07;;
2201;SDS011;1107;48.654;9.250;2022-07-23T11:52:45;8.70;;;8.40;;
2201;SDS011;1107;48.654;9.250;2022-07-23T11:55:13;9.23;;;8.53;;
2201;SDS011;1107;48.654;9.250;2022-07-23T11:57:42;8.57;;;8.27;;
2201;SDS011;1107;48.654;9.250;2022-07-23T12:00:11;8.47;;;8.17;;
2201;SDS011;1107;48.654;9.250;2022-07-23T12:02:39;8.53;;;7.87;;
2201;SDS011;1107;48.654;9.250;2022-07-23T12:05:08;7.93;;;7.63;;
2201;SDS011;1107;48.654;9.250;2022-07-23T12:07:39;9.40;;;8.80;;
2201;SDS011;1107;48.654;9.250;2022-07-23T12:10:11;7.28;;;6.97;;
2201;SDS011;1107;48.654;9.250;2022-07-23T12:12:41;7.40;;;7.10;;
2201;SDS011;1107;48.654;9.250;2022-07-23T12:15:10;7.13;;;6.83;;
2201;SDS011;1107;48.654;9.250;2022-07-23T12:17:39;8.30;;;8.00;;
2201;SDS011;1107;48.654;9.250;2022-07-23T12:20:09;7.50;;;7.10;;
2201;SDS011;1107;48.654;9.250;2022-07-23T12:22:39;7.93;;;7.60;;
2201;SDS011;1107;48.654;9.250;2022-07-23T12:25:08;7.70;;;7.30;;
2201;SDS011;1107;48.654;9.250;2022-07-23T12:27:38;8.23;;;7.73;;
2201;SDS011;1107;48.654;9.250;2022-07-23T12:30:15;7.60;;;7.30;;
2201;SDS011;1107;48.654;9.250;2022-07-23T12:32:47;7.90;;;7.37;;
2201;SDS011;1107;48.654;9.250;2022-07-23T12:35:15;8.00;;;7.60;;
2201;SDS011;1107;48.654;9.250;2022-07-23T12:37:43;7.60;;;7.20;;
2201;SDS011;1107;48.654;9.250;2022-07-23T12:40:20;7.33;;;6.97;;
2201;SDS011;1107;48.654;9.250;2022-07-23T12:42:51;7.90;;;7.60;;
2201;SDS011;1107;48.654;9.250;2022-07-23T12:45:19;7.33;;;6.87;;
2201;SDS011;1107;48.654;9.250;2022-07-23T12:47:50;7.10;;;6.80;;
2201;SDS011;1107;48.654;9.250;2022-07-23T12:50:39;7.60;;;7.30;;
2201;SDS011;1107;48.654;9.250;2022-07-23T12:53:10;8.00;;;7.60;;
2201;SDS011;1107;48.654;9.250;2022-07-23T12:55:40;8.13;;;7.63;;
2201;SDS011;1107;48.654;9.250;2022-07-23T12:58:13;8.57;;;8.00;;
2201;SDS011;1107;48.654;9.250;2022-07-23T13:00:59;8.73;;;7.80;;
2201;SDS011;1107;48.654;9.250;2022-07-23T13:03:29;7.50;;;7.20;;
2201;SDS011;1107;48.654;9.250;2022-07-23T13:05:58;10.50;;;7.63;;
2201;SDS011;1107;48.654;9.250;2022-07-23T13:08:26;7.90;;;7.60;;
2201;SDS011;1107;48.654;9.250;2022-07-23T13:10:54;7.90;;;7.60;;
2201;SDS011;1107;48.654;9.250;2022-07-23T13:13:23;8.30;;;8.00;;
2201;SDS011;1107;48.654;9.250;2022-07-23T13:15:52;7.50;;;7.20;;
2201;SDS011;1107;48.654;9.250;2022-07-23T13:18:20;8.03;;;7.73;;
2201;SDS011;1107;48.654;9.250;2022-07-23T13:20:48;9.10;;;8.77;;
2201;SDS011;1107;48.654;9.250;2022-07-23T13:23:15;8.63;;;8.23;;
2201;SDS011;1107;48.654;9.250;2022-07-23T13:25:43;8.47;;;8.17;;
2201;SDS011;1107;48.654;9.250;2022-07-23T13:28:11;9.63;;;8.80;;
2201;SDS011;1107;48.654;9.250;2022-07-23T13:30:40;8.77;;;8.27;;
2201;SDS011;1107;48.654;9.250;2022-07-23T13:33:08;8.47;;;8.07;;
2201;SDS011;1107;48.654;9.250;2022-07-23T13:35:35;8.77;;;8.30;;
2201;SDS011;1107;48.654;9.250;2022-07-23T13:38:03;8.20;;;7.70;;
2201;SDS011;1107;48.654;9.250;2022-07-23T13:40:32;8.80;;;8.40;;
2201;SDS011;1107;48.654;9.250;2022-07-23T13:42:59;8.70;;;8.17;;
2201;SDS011;1107;48.654;9.250;2022-07-23T13:45:27;8.10;;;7.80;;
2201;SDS011;1107;48.654;9.250;2022-07-23T13:47:55;8.93;;;8.43;;
2201;SDS011;1107;48.654;9.250;2022-07-23T13:50:22;8.00;;;7.60;;
2201;SDS011;1107;48.654;9.250;2022-07-23T13:52:50;8.40;;;8.10;;
2201;SDS011;1107;48.654;9.250;2022-07-23T13:55:17;8.40;;;8.00;;
2201;SDS011;1107;48.654;9.250;2022-07-23T13:57:44;8.73;;;8.33;;
2201;SDS011;1107;48.654;9.250;2022-07-23T14:00:11;9.23;;;8.83;;
2201;SDS011;1107;48.654;9.250;2022-07-23T14:02:39;8.67;;;8.30;;
2201;SDS011;1107;48.654;9.250;2022-07-23T14:05:09;9.90;;;9.30;;
2201;SDS011;1107;48.654;9.250;2022-07-23T14:07:37;8.20;;;7.70;;
2201;SDS011;1107;48.654;9.250;2022-07-23T14:10:05;9.37;;;8.80;;
2201;SDS011;1107;48.654;9.250;2022-07-23T14:12:33;9.00;;;8.50;;
2201;SDS011;1107;48.654;9.250;2022-07-23T14:15:00;8.40;;;8.10;;
2201;SDS011;1107;48.654;9.250;2022-07-23T14:17:28;8.23;;;7.93;;
2201;SDS011;1107;48.654;9.250;2022-07-23T14:19:56;9.43;;;9.03;;
2201;SDS011;1107;48.654;9.250;2022-07-23T14:22:25;8.20;;;7.90;;
2201;SDS011;1107;48.654;9.250;2022-07-23T14:24:52;8.80;;;8.40;;
2201;SDS011;1107;48.654;9.250;2022-07-23T14:27:19;9.40;;;9.10;;
2201;SDS011;1107;48.654;9.250;2022-07-23T14:29:46;8.13;;;7.83;;
2201;SDS011;1107;48.654;9.250;2022-07-23T14:32:14;8.47;;;8.17;;
2201;SDS011;1107;48.654;9.250;2022-07-23T14:34:41;8.87;;;8.27;;
2201;SDS011;1107;48.654;9.250;2022-07-23T14:37:09;9.03;;;8.60;;
2201;SDS011;1107;48.654;9.250;2022-07-23T14:39:37;8.40;;;8.10;;
2201;SDS011;1107;48.654;9.250;2022-07-23T14:42:05;9.43;;;9.00;;
2201;SDS011;1107;48.654;9.250;2022-07-23T14:44:32;8.60;;;8.30;;
2201;SDS011;1107;48.654;9.250;2022-07-23T14:47:00;8.50;;;8.20;;
2201;SDS011;1107;48.654;9.250;2022-07-23T14:49:28;10.27;;;9.60;;
2201;SDS011;1107;48.654;9.250;2022-07-23T14:51:55;10.07;;;9.17;;
2201;SDS011;1107;48.654;9.250;2022-07-23T14:54:23;8.57;;;8.10;;
2201;SDS011;1107;48.654;9.250;2022-07-23T14:56:53;9.20;;;8.70;;
2201;SDS011;1107;48.654;9.250;2022-07-23T14:59:21;9.03;;;8.63;;
2201;SDS011;1107;48.654;9.250;2022-07-23T15:01:48;9.00;;;8.63;;
2201;SDS011;1107;48.654;9.250;2022-07-23T15:04:15;9.07;;;8.60;;
2201;SDS011;1107;48.654;9.250;2022-07-23T15:06:42;8.87;;;7.73;;
2201;SDS011;1107;48.654;9.250;2022-07-23T15:09:10;8.50;;;8.10;;
2201;SDS011;1107;48.654;9.250;2022-07-23T15:11:37;9.20;;;8.57;;
2201;SDS011;1107;48.654;9.250;2022-07-23T15:14:06;8.60;;;8.23;;
2201;SDS011;1107;48.654;9.250;2022-07-23T15:16:34;8.37;;;8.07;;
2201;SDS011;1107;48.654;9.250;2022-07-23T15:19:01;8.70;;;8.40;;
2201;SDS011;1107;48.654;9.250;2022-07-23T15:21:28;9.03;;;8.10;;
2201;SDS011;1107;48.654;9.250;2022-07-23T15:23:56;8.40;;;8.10;;
2201;SDS011;1107;48.654;9.250;2022-07-23T15:26:24;8.73;;;8.23;;
2201;SDS011;1107;48.654;9.250;2022-07-23T15:28:51;8.97;;;8.50;;
2201;SDS011;1107;48.654;9.250;2022-07-23T15:31:20;9.00;;;8.50;;
2201;SDS011;1107;48.654;9.250;2022-07-23T15:33:48;10.07;;;9.60;;
2201;SDS011;1107;48.654;9.250;2022-07-23T15:36:16;8.60;;;8.15;;
2201;SDS011;1107;48.654;9.250;2022-07-23T15:38:44;9.90;;;9.47;;